createdAt,value
2023-06-07T00:01:54.243Z,19.04
2023-06-07T00:04:21.041Z,19.09
2023-06-07T00:06:49.095Z,18.98
2023-06-07T00:09:15.719Z,19.03
2023-06-07T00:11:42.357Z,18.86
2023-06-07T00:14:08.944Z,18.81
2023-06-07T00:16:37.975Z,18.75
2023-06-07T00:19:04.840Z,18.58
2023-06-07T00:21:31.774Z,18.64
2023-06-07T00:23:59.803Z,18.59
2023-06-07T00:26:26.502Z,18.47
2023-06-07T00:28:53.537Z,18.39
2023-06-07T00:31:20.303Z,18.42
2023-06-07T00:33:47.295Z,18.41
2023-06-07T00:36:13.939Z,18.31
2023-06-07T00:38:40.547Z,18.32
2023-06-07T00:41:08.511Z,18.18
2023-06-07T00:43:35.135Z,18.17
2023-06-07T00:46:02.200Z,18.19
2023-06-07T00:48:29.616Z,18.10
2023-06-07T00:50:57.358Z,18.09
2023-06-07T00:53:24.516Z,18.12
2023-06-07T00:55:51.368Z,18.08
2023-06-07T00:58:20.623Z,17.98
2023-06-07T01:00:48.783Z,17.97
2023-06-07T01:03:15.572Z,17.80
2023-06-07T01:05:43.461Z,17.93
2023-06-07T01:08:11.820Z,17.90
2023-06-07T01:10:38.915Z,17.87
2023-06-07T01:13:10.541Z,17.75
2023-06-07T01:15:39.450Z,17.74
2023-06-07T01:18:06.901Z,17.68
2023-06-07T01:20:37.819Z,17.66
2023-06-07T01:23:07.838Z,17.65
2023-06-07T01:25:36.075Z,17.53
2023-06-07T01:28:03.262Z,17.48
2023-06-07T01:30:30.313Z,17.52
2023-06-07T01:33:01.546Z,17.42
2023-06-07T01:35:29.807Z,17.43
2023-06-07T01:37:57.569Z,17.38
2023-06-07T01:40:25.602Z,17.35
2023-06-07T01:42:56.762Z,17.31
2023-06-07T01:45:23.745Z,17.22
2023-06-07T01:47:50.585Z,17.17
2023-06-07T01:50:21.824Z,17.14
2023-06-07T01:52:48.501Z,17.09
2023-06-07T01:55:17.391Z,17.10
2023-06-07T01:57:52.835Z,17.03
2023-06-07T02:00:27.204Z,17.03
2023-06-07T02:02:57.208Z,16.98
2023-06-07T02:05:27.974Z,16.95
2023-06-07T02:07:57.644Z,16.90
2023-06-07T02:10:27.790Z,16.83
2023-06-07T02:12:55.793Z,16.77
2023-06-07T02:15:23.869Z,16.82
2023-06-07T02:17:52.112Z,16.79
2023-06-07T02:20:21.069Z,16.78
2023-06-07T02:22:47.893Z,16.70
2023-06-07T02:25:14.549Z,16.66
2023-06-07T02:27:41.200Z,16.52
2023-06-07T02:30:09.091Z,16.55
2023-06-07T02:32:37.148Z,16.60
2023-06-07T02:35:04.170Z,16.56
2023-06-07T02:37:31.123Z,16.56
2023-06-07T02:39:59.394Z,16.51
2023-06-07T02:42:26.366Z,16.50
2023-06-07T02:44:56.076Z,16.44
2023-06-07T02:47:22.768Z,16.40
2023-06-07T02:49:51.777Z,16.47
2023-06-07T02:52:18.499Z,16.46
2023-06-07T02:54:45.121Z,16.32
2023-06-07T02:57:11.783Z,16.38
2023-06-07T02:59:38.514Z,16.34
2023-06-07T03:02:05.726Z,16.31
2023-06-07T03:04:32.574Z,16.34
2023-06-07T03:07:02.564Z,16.27
2023-06-07T03:09:35.310Z,16.25
2023-06-07T03:12:01.984Z,16.23
2023-06-07T03:14:35.004Z,16.16
2023-06-07T03:17:01.866Z,16.26
2023-06-07T03:19:29.851Z,16.17
2023-06-07T03:21:58.033Z,16.21
2023-06-07T03:24:26.026Z,16.14
2023-06-07T03:26:52.724Z,16.11
2023-06-07T03:29:19.590Z,16.03
2023-06-07T03:31:46.354Z,16.02
2023-06-07T03:34:17.224Z,16.08
2023-06-07T03:36:44.280Z,16.04
2023-06-07T03:39:15.608Z,16.00
2023-06-07T03:41:44.382Z,16.06
2023-06-07T03:44:15.854Z,15.95
2023-06-07T03:46:42.716Z,16.01
2023-06-07T03:49:09.996Z,15.92
2023-06-07T03:51:36.744Z,15.92
2023-06-07T03:54:04.451Z,15.89
2023-06-07T03:56:31.771Z,15.94
2023-06-07T03:59:00.147Z,15.89
2023-06-07T04:01:27.295Z,15.92
2023-06-07T04:03:56.925Z,15.83
2023-06-07T04:06:24.598Z,16.04
2023-06-07T04:08:51.789Z,16.06
2023-06-07T04:11:18.486Z,16.16
2023-06-07T04:13:45.102Z,16.17
2023-06-07T04:16:13.614Z,16.18
2023-06-07T04:18:43.319Z,16.18
2023-06-07T04:21:10.179Z,16.22
2023-06-07T04:23:39.572Z,16.19
2023-06-07T04:26:06.330Z,16.18
2023-06-07T04:28:33.457Z,16.18
2023-06-07T04:31:04.681Z,16.17
2023-06-07T04:33:33.203Z,16.32
2023-06-07T04:35:59.904Z,16.35
2023-06-07T04:38:27.475Z,16.32
2023-06-07T04:41:00.050Z,16.25
2023-06-07T04:43:33.534Z,16.41
2023-06-07T04:46:00.189Z,16.34
2023-06-07T04:48:29.786Z,16.32
2023-06-07T04:50:58.873Z,16.37
2023-06-07T04:53:25.555Z,16.31
2023-06-07T04:55:52.321Z,16.34
2023-06-07T04:58:20.203Z,16.30
2023-06-07T05:00:46.880Z,16.30
2023-06-07T05:03:16.703Z,16.28
2023-06-07T05:05:44.029Z,16.35
2023-06-07T05:08:12.021Z,16.41
2023-06-07T05:10:38.750Z,16.38
2023-06-07T05:13:05.690Z,16.39
2023-06-07T05:15:32.420Z,16.47
2023-06-07T05:17:59.501Z,16.36
2023-06-07T05:20:26.428Z,16.39
2023-06-07T05:22:55.378Z,16.48
2023-06-07T05:25:23.395Z,16.45
2023-06-07T05:27:59.929Z,16.43
2023-06-07T05:30:32.122Z,16.54
2023-06-07T05:32:58.975Z,16.52
2023-06-07T05:35:26.256Z,16.64
2023-06-07T05:37:52.955Z,16.63
2023-06-07T05:40:20.308Z,16.67
2023-06-07T05:42:49.405Z,16.74
2023-06-07T05:45:16.460Z,16.76
2023-06-07T05:47:43.362Z,16.81
2023-06-07T05:50:10.644Z,16.84
2023-06-07T05:52:38.138Z,16.95
2023-06-07T05:55:05.541Z,16.92
2023-06-07T05:57:32.136Z,16.90
2023-06-07T06:00:00.157Z,16.87
2023-06-07T06:02:27.200Z,17.03
2023-06-07T06:04:54.035Z,16.96
2023-06-07T06:07:20.757Z,17.00
2023-06-07T06:09:47.428Z,17.07
2023-06-07T06:12:14.092Z,17.13
2023-06-07T06:14:40.786Z,17.15
2023-06-07T06:17:08.992Z,17.21
2023-06-07T06:19:35.796Z,17.28
2023-06-07T06:22:02.630Z,17.20
2023-06-07T06:24:29.313Z,17.11
2023-06-07T06:26:56.146Z,17.09
2023-06-07T06:29:24.741Z,17.24
2023-06-07T06:31:52.478Z,17.27
2023-06-07T06:34:20.477Z,17.35
2023-06-07T06:36:47.192Z,17.47
2023-06-07T06:39:21.048Z,17.58
2023-06-07T06:41:47.989Z,17.63
2023-06-07T06:44:21.192Z,17.81
2023-06-07T06:46:47.975Z,17.88
2023-06-07T06:49:14.932Z,17.87
2023-06-07T06:51:45.966Z,17.93
2023-06-07T06:54:12.906Z,17.98
2023-06-07T06:56:39.896Z,18.11
2023-06-07T06:59:06.645Z,18.25
2023-06-07T07:01:46.014Z,18.38
2023-06-07T07:04:12.928Z,18.42
2023-06-07T07:06:40.072Z,18.39
2023-06-07T07:09:08.208Z,18.48
2023-06-07T07:11:35.985Z,18.51
2023-06-07T07:14:03.316Z,18.59
2023-06-07T07:16:30.729Z,18.81
2023-06-07T07:18:57.611Z,18.80
2023-06-07T07:21:25.378Z,18.83
2023-06-07T07:23:52.132Z,18.93
2023-06-07T07:26:20.307Z,18.99
2023-06-07T07:28:46.937Z,19.12
2023-06-07T07:31:16.361Z,19.12
2023-06-07T07:33:43.240Z,19.11
2023-06-07T07:36:11.050Z,18.99
2023-06-07T07:38:38.929Z,19.04
2023-06-07T07:41:05.990Z,18.99
2023-06-07T07:43:37.826Z,19.12
2023-06-07T07:46:05.107Z,19.29
2023-06-07T07:48:32.061Z,19.44
2023-06-07T07:50:58.775Z,19.36
2023-06-07T07:53:28.649Z,19.47
2023-06-07T07:55:55.355Z,19.37
2023-06-07T07:58:21.955Z,19.36
2023-06-07T08:00:49.925Z,19.28
2023-06-07T08:03:16.698Z,19.32
2023-06-07T08:05:43.670Z,19.25
2023-06-07T08:08:10.437Z,19.23
2023-06-07T08:10:37.535Z,19.39
2023-06-07T08:13:04.212Z,19.42
2023-06-07T08:15:30.921Z,19.54
2023-06-07T08:17:58.971Z,19.58
2023-06-07T08:20:25.715Z,19.53
2023-06-07T08:22:52.367Z,19.44
2023-06-07T08:25:19.206Z,19.53
2023-06-07T08:27:45.926Z,19.43
2023-06-07T08:30:12.861Z,19.41
2023-06-07T08:32:39.819Z,19.39
2023-06-07T08:35:09.345Z,19.44
2023-06-07T08:37:36.049Z,19.50
2023-06-07T08:40:03.521Z,19.48
2023-06-07T08:42:33.344Z,19.44
2023-06-07T08:45:01.049Z,19.36
2023-06-07T08:47:29.162Z,19.39
2023-06-07T08:49:56.967Z,19.34
2023-06-07T08:52:25.740Z,19.46
2023-06-07T08:54:55.921Z,19.36
2023-06-07T08:57:23.713Z,19.38
2023-06-07T08:59:50.971Z,19.41
2023-06-07T09:02:18.255Z,19.53
2023-06-07T09:04:45.508Z,19.56
2023-06-07T09:07:13.368Z,19.60
2023-06-07T09:09:45.767Z,19.50
2023-06-07T09:12:12.679Z,19.46
2023-06-07T09:14:39.857Z,19.34
2023-06-07T09:17:06.801Z,19.24
2023-06-07T09:19:34.912Z,19.20
2023-06-07T09:22:02.266Z,19.14
2023-06-07T09:24:29.839Z,19.14
2023-06-07T09:26:58.338Z,19.00
2023-06-07T09:29:25.277Z,19.05
2023-06-07T09:31:52.059Z,18.91
2023-06-07T09:34:24.287Z,18.88
2023-06-07T09:36:53.506Z,18.78
2023-06-07T09:39:20.782Z,18.56
2023-06-07T09:41:47.472Z,18.57
2023-06-07T09:44:23.526Z,18.52
2023-06-07T09:46:50.858Z,18.44
2023-06-07T09:49:23.365Z,18.39
2023-06-07T09:51:52.444Z,18.39
2023-06-07T09:54:34.801Z,18.31
2023-06-07T09:57:01.553Z,18.24
2023-06-07T09:59:29.612Z,18.17
2023-06-07T10:01:56.331Z,18.20
2023-06-07T10:04:23.176Z,18.20
2023-06-07T10:06:51.663Z,18.26
2023-06-07T10:09:18.859Z,18.10
2023-06-07T10:11:48.174Z,18.15
2023-06-07T10:14:18.299Z,18.16
2023-06-07T10:16:52.834Z,18.15
2023-06-07T10:19:24.243Z,18.17
2023-06-07T10:21:52.197Z,18.19
2023-06-07T10:24:24.891Z,18.25
2023-06-07T10:26:55.203Z,18.34
2023-06-07T10:29:30.815Z,18.62
2023-06-07T10:32:07.624Z,18.98
2023-06-07T10:34:36.204Z,19.20
2023-06-07T10:37:03.736Z,19.15
2023-06-07T10:39:30.494Z,19.26
2023-06-07T10:41:57.781Z,19.25
2023-06-07T10:44:25.338Z,19.12
2023-06-07T10:47:29.128Z,19.24
2023-06-07T10:49:55.964Z,19.06
2023-06-07T10:52:23.837Z,19.04
2023-06-07T10:54:51.988Z,19.03
2023-06-07T10:57:35.401Z,18.95
2023-06-07T11:00:26.515Z,18.94
2023-06-07T11:03:35.018Z,18.89
2023-06-07T11:06:09.764Z,18.66
2023-06-07T11:08:37.162Z,18.56
2023-06-07T11:11:05.197Z,18.68
2023-06-07T11:14:09.596Z,18.75
2023-06-07T11:16:36.866Z,18.80
2023-06-07T11:19:04.976Z,18.90
2023-06-07T11:21:59.527Z,19.19
2023-06-07T11:24:26.268Z,19.27
2023-06-07T11:26:52.996Z,19.42
2023-06-07T11:29:20.110Z,19.65
2023-06-07T11:31:47.037Z,19.88
2023-06-07T11:34:13.947Z,20.21
2023-06-07T11:36:42.181Z,20.38
2023-06-07T11:39:09.006Z,20.41
2023-06-07T11:41:35.853Z,20.39
2023-06-07T11:44:02.814Z,20.27
2023-06-07T11:46:32.393Z,20.28
2023-06-07T11:49:03.630Z,20.17
2023-06-07T11:51:30.417Z,20.12
2023-06-07T11:53:59.703Z,19.98
2023-06-07T11:56:26.551Z,19.83
2023-06-07T11:58:55.834Z,19.68
2023-06-07T12:01:22.943Z,19.63
2023-06-07T12:03:50.757Z,19.50
2023-06-07T12:06:17.464Z,19.38
2023-06-07T12:08:44.316Z,19.43
2023-06-07T12:11:12.263Z,19.49
2023-06-07T12:13:39.108Z,19.49
2023-06-07T12:16:06.707Z,19.55
2023-06-07T12:18:33.897Z,19.68
2023-06-07T12:21:05.418Z,19.75
2023-06-07T12:23:32.201Z,19.78
2023-06-07T12:26:09.111Z,19.85
2023-06-07T12:28:37.792Z,19.95
2023-06-07T12:31:04.627Z,19.91
2023-06-07T12:33:31.778Z,19.98
2023-06-07T12:35:58.410Z,20.07
2023-06-07T12:38:25.230Z,20.25
2023-06-07T12:40:51.836Z,20.30
2023-06-07T12:43:18.541Z,20.47
2023-06-07T12:45:46.629Z,20.73
2023-06-07T12:48:13.419Z,20.89
2023-06-07T12:50:40.423Z,21.16
2023-06-07T12:53:07.172Z,21.45
2023-06-07T12:55:33.833Z,21.78
2023-06-07T12:58:00.603Z,22.12
2023-06-07T13:00:27.494Z,22.20
2023-06-07T13:02:55.673Z,22.76
2023-06-07T13:05:23.514Z,23.58
2023-06-07T13:07:50.220Z,24.48
2023-06-07T13:10:17.035Z,24.83
2023-06-07T13:12:43.769Z,24.82
2023-06-07T13:15:12.986Z,24.78
2023-06-07T13:17:39.860Z,24.67
2023-06-07T13:20:09.976Z,24.53
2023-06-07T13:22:36.911Z,24.27
2023-06-07T13:25:03.724Z,24.10
2023-06-07T13:27:30.469Z,23.86
2023-06-07T13:29:57.500Z,23.59
2023-06-07T13:32:24.375Z,23.53
2023-06-07T13:34:51.233Z,23.37
2023-06-07T13:37:19.414Z,23.30
2023-06-07T13:39:46.163Z,23.35
2023-06-07T13:42:12.990Z,23.44
2023-06-07T13:44:40.244Z,23.35
2023-06-07T13:47:08.262Z,23.34
2023-06-07T13:49:35.234Z,23.23
2023-06-07T13:52:02.121Z,23.25
2023-06-07T13:54:30.260Z,23.48
2023-06-07T13:56:57.042Z,23.57
2023-06-07T13:59:25.450Z,23.72
2023-06-07T14:01:52.560Z,23.82
2023-06-07T14:04:19.605Z,23.90
2023-06-07T14:06:46.436Z,24.09
2023-06-07T14:09:13.322Z,24.26
2023-06-07T14:11:41.480Z,24.15
2023-06-07T14:14:08.074Z,24.05
2023-06-07T14:16:34.724Z,24.01
2023-06-07T14:19:01.579Z,24.05
2023-06-07T14:21:28.306Z,24.26
2023-06-07T14:23:55.076Z,24.46
2023-06-07T14:26:21.926Z,24.31
2023-06-07T14:28:50.106Z,24.18
2023-06-07T14:31:17.018Z,24.03
2023-06-07T14:33:43.849Z,24.05
2023-06-07T14:36:10.773Z,24.10
2023-06-07T14:38:37.616Z,24.10
2023-06-07T14:41:04.396Z,24.09
2023-06-07T14:43:31.036Z,23.89
2023-06-07T14:45:59.441Z,23.77
2023-06-07T14:48:27.172Z,23.82
2023-06-07T14:50:54.088Z,23.83
2023-06-07T14:53:20.928Z,23.81
2023-06-07T14:55:48.032Z,23.70
2023-06-07T14:58:14.701Z,23.71
2023-06-07T15:00:41.386Z,23.66
2023-06-07T15:03:09.574Z,23.63
2023-06-07T15:05:36.276Z,23.62
2023-06-07T15:08:05.821Z,23.56
2023-06-07T15:10:32.648Z,23.56
2023-06-07T15:12:59.267Z,23.68
2023-06-07T15:15:25.972Z,23.79
2023-06-07T15:17:53.535Z,23.68
2023-06-07T15:20:24.279Z,23.63
2023-06-07T15:22:52.144Z,23.68
2023-06-07T15:25:18.930Z,23.78
2023-06-07T15:27:48.297Z,23.71
2023-06-07T15:30:15.399Z,23.78
2023-06-07T15:32:42.135Z,23.89
2023-06-07T15:35:12.720Z,24.02
2023-06-07T15:37:41.873Z,24.12
2023-06-07T15:40:09.293Z,23.93
2023-06-07T15:42:37.149Z,23.73
2023-06-07T15:45:04.872Z,23.49
2023-06-07T15:47:31.705Z,23.35
2023-06-07T15:52:24.881Z,23.29
2023-06-07T15:54:52.925Z,23.34
2023-06-07T15:57:19.562Z,23.47
2023-06-07T15:59:46.165Z,23.30
2023-06-07T16:02:12.784Z,23.24
2023-06-07T16:04:39.899Z,23.16
2023-06-07T16:07:06.788Z,23.12
2023-06-07T16:09:33.504Z,23.08
2023-06-07T16:12:01.619Z,23.06
2023-06-07T16:14:31.539Z,23.00
2023-06-07T16:16:58.183Z,23.02
2023-06-07T16:19:24.821Z,22.99
2023-06-07T16:21:51.449Z,22.97
2023-06-07T16:24:18.215Z,22.94
2023-06-07T16:26:45.210Z,22.95
2023-06-07T16:29:13.186Z,22.99
2023-06-07T16:31:39.857Z,22.94
2023-06-07T16:34:06.643Z,22.94
2023-06-07T16:36:33.499Z,22.96
2023-06-07T16:39:00.267Z,22.94
2023-06-07T16:41:27.342Z,22.91
2023-06-07T16:43:54.455Z,22.90
2023-06-07T16:46:22.646Z,22.88
2023-06-07T16:48:49.400Z,22.87
2023-06-07T16:51:16.175Z,22.93
2023-06-07T16:53:42.822Z,22.91
2023-06-07T16:56:09.570Z,22.87
2023-06-07T16:58:44.508Z,22.83
2023-06-07T17:01:11.322Z,22.79
2023-06-07T17:03:39.822Z,22.78
2023-06-07T17:06:07.125Z,22.74
2023-06-07T17:08:33.758Z,22.73
2023-06-07T17:11:00.457Z,22.73
2023-06-07T17:13:27.141Z,22.68
2023-06-07T17:15:54.003Z,22.58
2023-06-07T17:18:20.708Z,22.50
2023-06-07T17:20:49.556Z,22.39
2023-06-07T17:23:16.415Z,22.45
2023-06-07T17:25:43.058Z,22.44
2023-06-07T17:28:09.707Z,22.46
2023-06-07T17:30:38.898Z,22.49
2023-06-07T17:33:06.407Z,22.53
2023-06-07T17:35:33.458Z,22.49
2023-06-07T17:38:01.832Z,22.50
2023-06-07T17:40:31.354Z,22.51
2023-06-07T17:42:58.199Z,22.56
2023-06-07T17:45:26.456Z,22.56
2023-06-07T17:47:54.658Z,22.56
2023-06-07T17:50:33.038Z,22.54
2023-06-07T17:53:09.486Z,22.55
2023-06-07T17:55:36.124Z,22.52
2023-06-07T17:58:02.976Z,22.49
2023-06-07T18:00:29.740Z,22.51
2023-06-07T18:02:56.660Z,22.46
2023-06-07T18:05:23.809Z,22.51
2023-06-07T18:07:50.573Z,22.54
2023-06-07T18:10:18.851Z,22.57
2023-06-07T18:12:45.556Z,22.68
2023-06-07T18:15:12.196Z,22.74
2023-06-07T18:17:40.839Z,22.79
2023-06-07T18:20:09.278Z,22.82
2023-06-07T18:22:36.269Z,22.84
2023-06-07T18:25:03.194Z,22.81
2023-06-07T18:27:31.288Z,22.76
2023-06-07T18:29:57.933Z,22.81
2023-06-07T18:32:24.602Z,22.79
2023-06-07T18:34:51.337Z,22.79
2023-06-07T18:37:18.010Z,22.79
2023-06-07T18:39:44.760Z,22.78
2023-06-07T18:42:13.069Z,22.79
2023-06-07T18:44:42.404Z,22.77
2023-06-07T18:47:09.305Z,22.76
2023-06-07T18:49:36.022Z,22.71
2023-06-07T18:52:02.927Z,22.69
2023-06-07T18:54:29.677Z,22.65
2023-06-07T18:56:58.965Z,22.57
2023-06-07T18:59:25.636Z,22.50
2023-06-07T19:01:53.735Z,22.41
2023-06-07T19:04:20.665Z,22.34
2023-06-07T19:06:50.503Z,22.28
2023-06-07T19:09:18.404Z,22.20
2023-06-07T19:11:45.832Z,22.12
2023-06-07T19:14:12.656Z,22.08
2023-06-07T19:16:40.463Z,22.03
2023-06-07T19:19:08.459Z,21.96
2023-06-07T19:21:35.182Z,21.89
2023-06-07T19:24:04.258Z,21.82
2023-06-07T19:26:31.250Z,21.74
2023-06-07T19:28:58.234Z,21.69
2023-06-07T19:31:24.947Z,21.64
2023-06-07T19:33:54.079Z,21.58
2023-06-07T19:36:22.164Z,21.55
2023-06-07T19:38:48.861Z,21.51
2023-06-07T19:41:15.616Z,21.47
2023-06-07T19:43:42.374Z,21.40
2023-06-07T19:46:09.133Z,21.37
2023-06-07T19:48:38.837Z,21.29
2023-06-07T19:51:05.472Z,21.23
2023-06-07T19:53:33.429Z,21.15
2023-06-07T19:56:00.157Z,21.10
2023-06-07T19:58:26.798Z,21.00
2023-06-07T20:00:53.373Z,20.88
2023-06-07T20:03:20.196Z,20.73
2023-06-07T20:05:46.925Z,20.69
2023-06-07T20:08:13.695Z,20.62
2023-06-07T20:10:41.710Z,20.48
2023-06-07T20:13:08.429Z,20.42
2023-06-07T20:15:35.004Z,20.34
2023-06-07T20:18:01.678Z,20.27
2023-06-07T20:20:31.244Z,20.25
2023-06-07T20:22:58.730Z,20.21
2023-06-07T20:25:25.360Z,20.21
2023-06-07T20:27:53.349Z,20.20
2023-06-07T20:30:22.883Z,20.20
2023-06-07T20:32:49.833Z,20.14
2023-06-07T20:35:16.610Z,20.10
2023-06-07T20:37:43.385Z,20.02
2023-06-07T20:40:11.216Z,19.97
2023-06-07T20:42:37.904Z,19.93
2023-06-07T20:45:07.178Z,19.88
2023-06-07T20:47:35.844Z,19.93
2023-06-07T20:50:02.766Z,19.89
2023-06-07T20:52:29.482Z,19.86
2023-06-07T20:54:56.088Z,19.81
2023-06-07T20:57:22.933Z,19.73
2023-06-07T20:59:49.612Z,19.68
2023-06-07T21:02:17.586Z,19.59
2023-06-07T21:04:44.213Z,19.51
2023-06-07T21:07:10.952Z,19.43
2023-06-07T21:09:37.626Z,19.34
2023-06-07T21:12:07.491Z,19.33
2023-06-07T21:14:34.120Z,19.28
2023-06-07T21:17:01.781Z,19.23
2023-06-07T21:19:29.701Z,19.19
2023-06-07T21:21:56.320Z,19.18
2023-06-07T21:24:23.062Z,19.24
2023-06-07T21:26:49.713Z,19.34
2023-06-07T21:29:16.380Z,19.43
2023-06-07T21:31:43.052Z,19.51
2023-06-07T21:34:09.696Z,19.55
2023-06-07T21:36:37.689Z,19.68
2023-06-07T21:39:04.441Z,19.72
2023-06-07T21:41:31.169Z,19.73
2023-06-07T21:43:57.966Z,19.78
2023-06-07T21:46:24.614Z,19.83
2023-06-07T21:48:51.326Z,19.83
2023-06-07T21:51:18.173Z,19.82
2023-06-07T21:53:46.193Z,19.79
2023-06-07T21:56:12.967Z,19.85
2023-06-07T21:58:39.605Z,19.81
2023-06-07T22:01:06.271Z,19.78
2023-06-07T22:03:33.438Z,19.73
2023-06-07T22:06:00.155Z,19.69
2023-06-07T22:08:26.880Z,19.66
2023-06-07T22:10:56.748Z,19.62
2023-06-07T22:13:23.494Z,19.63
2023-06-07T22:15:50.575Z,19.61
2023-06-07T22:18:18.042Z,19.57
2023-06-07T22:20:44.853Z,19.53
2023-06-07T22:23:11.861Z,19.50
2023-06-07T22:25:41.525Z,19.47
2023-06-07T22:28:10.963Z,19.41
2023-06-07T22:30:37.789Z,19.33
2023-06-07T22:33:04.510Z,19.28
2023-06-07T22:35:31.200Z,19.17
2023-06-07T22:37:57.853Z,19.10
2023-06-07T22:40:24.548Z,19.08
2023-06-07T22:42:51.335Z,18.99
2023-06-07T22:45:19.435Z,18.95
2023-06-07T22:47:46.196Z,18.83
2023-06-07T22:50:12.832Z,18.83
2023-06-07T22:52:39.495Z,18.75
2023-06-07T22:55:06.863Z,18.75
2023-06-07T22:57:34.746Z,18.69
2023-06-07T23:00:01.422Z,18.74
2023-06-07T23:02:29.472Z,18.71
2023-06-07T23:04:56.238Z,18.70
2023-06-07T23:07:22.888Z,18.61
2023-06-07T23:09:49.782Z,18.58
2023-06-07T23:12:16.430Z,18.67
2023-06-07T23:14:43.149Z,18.54
2023-06-07T23:17:09.794Z,18.59
2023-06-07T23:19:37.769Z,18.58
2023-06-07T23:22:04.607Z,18.53
2023-06-07T23:24:31.197Z,18.50
2023-06-07T23:26:57.849Z,18.47
2023-06-07T23:29:24.546Z,18.49
2023-06-07T23:31:51.158Z,18.42
2023-06-07T23:34:17.896Z,18.44
2023-06-07T23:36:45.945Z,18.36
2023-06-07T23:39:12.517Z,18.33
2023-06-07T23:41:39.200Z,18.34
2023-06-07T23:44:06.386Z,18.39
2023-06-07T23:46:33.196Z,18.32
2023-06-07T23:48:59.833Z,18.31
2023-06-07T23:51:26.462Z,18.23
2023-06-07T23:53:54.866Z,18.19
2023-06-07T23:56:21.640Z,18.13
2023-06-07T23:58:48.284Z,18.16
